Hyannis, MA

8:59 PM EST on January 26, 2015 (GMT -0500)
Hyannis Woods | Change Station
CLOSE
Current Station
Personal Weather Station
Location: Barnstable, MA
Elevation: 66 ft
Nearby Weather Stations

Elev 66 ft 41.66 °N, 70.31 °W | Updated 10 minutes ago

Light Snow
Light Snow Mist
30.0 °F
Feels Like 30 °F
N
0.0
Wind Variable Wind from WNW

Today
High -- | Low -- °F
--% Chance of Precip.
Yesterday
High -- | Low -- °F
Precip. -- in
6:58 AM 4:48 PM
Waxing Crescent, 49% visible
Pressure 29.87 in
Visibility 0.8 miles
Clouds
Windchill 30 °F
Dew Point 30 °F
Humidity 98%
Rainfall 0.00 in
Snow Depth Not available.
UV Not available.
Pollen .10 out of 12
Air Quality Not available.
Flu Activity Not available.
METAR KHYA 270056Z 04018G32KT 3/4SM -SN BR VV007 M01/M02 A2986 RMK AO2 PK WND 04032/0052 SLP113 P0005 T10111022

More Conditions Fewer Conditions

Pressure 29.87 in
Visibility 0.8 miles
Clouds
Windchill 30 °F
Dew Point 30 °F
Humidity 98%
Rainfall 0.00 in
Snow Depth Not available.
UV Not available.
Pollen .10 out of 12
Air Quality Not available.
Flu Activity Not available.
METAR KHYA 270056Z 04018G32KT 3/4SM -SN BR VV007 M01/M02 A2986 RMK AO2 PK WND 04032/0052 SLP113 P0005 T10111022

More Conditions Fewer Conditions

10-Day Weather Forecast

Almanac

Astronomy

Jan. 26, 2015 Rise Set
Actual Time
Civil Twilight
Nautical Twilight
Astronomical Twilight
Moon
Length of Visible Light
Length of Day
Tomorrow will be .
, % of the Moon is Illuminated

Today's Extremes

State Highs State Lows

Community

WunderPhotos

Upload Photos

1,790,451 photos uploaded!

WunderBlogs® & News

Nearby

Air Quality

  Air Quality AQ Index Pollutant
Not available.

Snow Depth

Station Depth Elevation

Earthquake Activity

City Distance Mag. Time & Date
Minimum magnitude displayed is 2.5.

Coastal Water Temperatures

Place Temperature

Nearby Weather Stations